Time;durP1;ratioP1;P1;durP2;ratioP2;P2;SDS_P1;SDS_P2;PMS_P1;PMS_P2;Temp;Humidity;BMP_temperature;BMP_pressure;BME280_temperature;BME280_humidity;BME280_pressure;Samples;Min_cycle;Max_cycle;Signal;HPM_P1;HPM_P2
2022/10/02 00:00:11;;;;;;;;;;;15.00;99.90;;;;;;4233300;28;19953;-63
2022/10/02 00:02:15;;;;;;;;;;;15.00;99.90;;;;;;4234442;28;20364;-65
2022/10/02 00:04:22;;;;;;;;;;;15.00;99.90;;;;;;4233309;28;19912;-63
2022/10/02 00:06:24;;;;;;;;;;;15.00;99.90;;;;;;4234187;28;19919;-64
2022/10/02 00:08:25;;;;;;;;;;;14.90;99.90;;;;;;4233284;28;19912;-64
2022/10/02 00:10:33;;;;;;;;;;;14.90;99.90;;;;;;4234176;28;19968;-65
2022/10/02 00:12:34;;;;;;;;;;;14.90;99.90;;;;;;4231472;28;19908;-63
2022/10/02 00:14:37;;;;;;;;;;;14.80;99.90;;;;;;4234407;28;20321;-63
2022/10/02 00:16:58;;;;;;;;;;;14.80;99.90;;;;;;4233067;28;19915;-64
2022/10/02 00:18:59;;;;;;;;;;;14.70;99.90;;;;;;4234199;28;19916;-63
2022/10/02 00:21:00;;;;;;;;;;;14.70;99.90;;;;;;4233240;28;20248;-69
2022/10/02 00:23:07;;;;;;;;;;;14.60;99.90;;;;;;4234374;28;21208;-63
2022/10/02 00:25:25;;;;;;;;;;;14.60;99.90;;;;;;4232792;27;19937;-63
2022/10/02 00:27:30;;;;;;;;;;;14.50;99.90;;;;;;4234415;28;20032;-64
2022/10/02 00:29:51;;;;;;;;;;;14.40;99.90;;;;;;4233108;28;19908;-64
2022/10/02 00:32:00;;;;;;;;;;;14.30;99.90;;;;;;4234825;28;19908;-63
2022/10/02 00:34:04;;;;;;;;;;;14.30;99.90;;;;;;4232944;28;19981;-64
2022/10/02 00:36:24;;;;;;;;;;;14.20;99.90;;;;;;4234110;28;19915;-62
2022/10/02 00:38:36;;;;;;;;;;;14.20;99.90;;;;;;4232939;28;19912;-64
2022/10/02 00:40:55;;;;;;;;;;;14.20;99.90;;;;;;4234232;28;20298;-64
2022/10/02 00:43:00;;;;;;;;;;;14.10;99.90;;;;;;4232898;28;19914;-63
2022/10/02 00:45:18;;;;;;;;;;;14.00;99.90;;;;;;4234113;28;19907;-63
2022/10/02 00:47:19;;;;;;;;;;;14.10;99.90;;;;;;4232873;28;20364;-64
2022/10/02 00:49:26;;;;;;;;;;;14.00;99.90;;;;;;4234101;28;19965;-65
2022/10/02 00:51:35;;;;;;;;;;;14.00;99.90;;;;;;4232873;28;19912;-63
2022/10/02 00:53:55;;;;;;;;;;;14.00;99.90;;;;;;4232560;28;20387;-64
2022/10/02 00:56:15;;;;;;;;;;;14.00;99.90;;;;;;4233041;28;19908;-64
2022/10/02 00:58:35;;;;;;;;;;;13.90;99.90;;;;;;4233727;28;19912;-64
2022/10/02 01:00:38;;;;;;;;;;;13.90;99.90;;;;;;4233312;28;20343;-64
2022/10/02 01:02:53;;;;;;;;;;;13.80;99.90;;;;;;4233364;27;19953;-64
2022/10/02 01:04:55;;;;;;;;;;;13.80;99.90;;;;;;4231554;28;19908;-64
2022/10/02 01:06:56;;;;;;;;;;;13.80;99.90;;;;;;4230764;28;19920;-65
2022/10/02 01:08:57;;;;;;;;;;;13.80;99.90;;;;;;4230129;28;19961;-66
2022/10/02 01:10:58;;;;;;;;;;;13.80;99.90;;;;;;4231366;28;19928;-65
2022/10/02 01:12:59;;;;;;;;;;;13.80;99.90;;;;;;4230157;28;19908;-65
2022/10/02 01:15:00;;;;;;;;;;;13.80;99.90;;;;;;4231210;28;19915;-64
2022/10/02 01:17:01;;;;;;;;;;;13.80;99.90;;;;;;4230011;28;19958;-65
2022/10/02 01:19:02;;;;;;;;;;;13.70;99.90;;;;;;4230836;28;20321;-65
2022/10/02 01:21:11;;;;;;;;;;;13.70;99.90;;;;;;4229843;28;19908;-64
2022/10/02 01:23:31;;;;;;;;;;;13.70;99.90;;;;;;4231127;28;19916;-65
2022/10/02 01:25:31;;;;;;;;;;;13.70;99.90;;;;;;4230058;28;19953;-65
2022/10/02 01:27:33;;;;;;;;;;;13.70;99.90;;;;;;4230927;28;19920;-66
2022/10/02 01:29:34;;;;;;;;;;;13.70;99.90;;;;;;4229881;28;19965;-65
2022/10/02 01:31:35;;;;;;;;;;;13.60;99.90;;;;;;4231424;28;19915;-65
2022/10/02 01:33:37;;;;;;;;;;;13.60;99.90;;;;;;4229668;28;20356;-64
2022/10/02 01:35:38;;;;;;;;;;;13.60;99.90;;;;;;4230150;28;19911;-65
2022/10/02 01:37:41;;;;;;;;;;;13.60;99.90;;;;;;4230160;28;19995;-65
2022/10/02 01:39:42;;;;;;;;;;;13.60;99.90;;;;;;4230154;28;19957;-64
2022/10/02 01:41:44;;;;;;;;;;;13.60;99.90;;;;;;4230340;28;19915;-64
2022/10/02 01:43:49;;;;;;;;;;;13.60;99.90;;;;;;4229303;28;19907;-65
2022/10/02 01:45:52;;;;;;;;;;;13.60;99.90;;;;;;4228894;28;19957;-64
2022/10/02 01:48:00;;;;;;;;;;;13.60;99.90;;;;;;4229301;28;19915;-63
2022/10/02 01:50:00;;;;;;;;;;;13.60;99.90;;;;;;4230563;28;19911;-65
2022/10/02 01:52:01;;;;;;;;;;;13.50;99.90;;;;;;4229421;28;20253;-63
2022/10/02 01:54:21;;;;;;;;;;;13.50;99.90;;;;;;4230576;28;19908;-64
2022/10/02 01:56:30;;;;;;;;;;;13.50;99.90;;;;;;4229508;28;19924;-65
2022/10/02 01:58:49;;;;;;;;;;;13.40;99.90;;;;;;4230522;28;20314;-64
2022/10/02 02:00:58;;;;;;;;;;;13.40;99.90;;;;;;4229516;28;19912;-64
2022/10/02 02:02:58;;;;;;;;;;;13.40;99.90;;;;;;4230430;28;19920;-64
2022/10/02 02:05:06;;;;;;;;;;;13.40;99.90;;;;;;4229350;28;19911;-64
2022/10/02 02:07:14;;;;;;;;;;;13.30;99.90;;;;;;4229380;28;19973;-64
2022/10/02 02:09:14;;;;;;;;;;;13.30;99.90;;;;;;4229203;28;20275;-64
2022/10/02 02:11:17;;;;;;;;;;;13.30;99.90;;;;;;4230319;28;19908;-64
2022/10/02 02:13:25;;;;;;;;;;;13.30;99.90;;;;;;4229219;28;19937;-64
2022/10/02 02:15:49;;;;;;;;;;;13.30;99.90;;;;;;4230383;28;19961;-65
2022/10/02 02:17:57;;;;;;;;;;;13.30;99.90;;;;;;4219404;28;20326;-64
2022/10/02 02:20:04;;;;;;;;;;;13.30;99.90;;;;;;4230097;28;20329;-66
2022/10/02 02:22:11;;;;;;;;;;;13.30;99.90;;;;;;4229046;28;19961;-65
2022/10/02 02:24:32;;;;;;;;;;;13.30;99.90;;;;;;4230268;28;19962;-65
2022/10/02 02:26:34;;;;;;;;;;;13.20;99.90;;;;;;4217907;28;20444;-64
2022/10/02 02:28:36;;;;;;;;;;;13.20;99.90;;;;;;4229999;28;19941;-65
2022/10/02 02:30:40;;;;;;;;;;;13.20;99.90;;;;;;4228873;28;19908;-65
2022/10/02 02:32:45;;;;;;;;;;;13.20;99.90;;;;;;4229887;28;19911;-65
2022/10/02 02:34:50;;;;;;;;;;;13.20;99.90;;;;;;4228752;28;19912;-65
2022/10/02 02:36:55;;;;;;;;;;;13.10;99.90;;;;;;4230090;28;19916;-65
2022/10/02 02:39:00;;;;;;;;;;;13.10;99.90;;;;;;4226924;28;20379;-64
2022/10/02 02:41:08;;;;;;;;;;;13.10;99.90;;;;;;4229935;28;19968;-65
2022/10/02 02:43:12;;;;;;;;;;;13.10;99.90;;;;;;4228712;28;19961;-64
2022/10/02 02:45:24;;;;;;;;;;;13.10;99.90;;;;;;4229802;28;20341;-66
2022/10/02 02:47:33;;;;;;;;;;;13.00;99.90;;;;;;4226853;28;19919;-64
2022/10/02 02:49:37;;;;;;;;;;;13.00;99.90;;;;;;4229780;28;19988;-64
2022/10/02 02:51:41;;;;;;;;;;;13.00;99.90;;;;;;4228502;28;20337;-64
2022/10/02 02:53:45;;;;;;;;;;;13.00;99.90;;;;;;4229492;28;20866;-65
2022/10/02 02:55:59;;;;;;;;;;;12.90;99.90;;;;;;4228597;28;20325;-65
2022/10/02 02:58:03;;;;;;;;;;;12.90;99.90;;;;;;4229304;28;19965;-64
2022/10/02 03:00:06;;;;;;;;;;;12.90;99.90;;;;;;4228299;28;19973;-62
2022/10/02 03:02:07;;;;;;;;;;;12.90;99.90;;;;;;4229473;28;19912;-63
2022/10/02 03:04:10;;;;;;;;;;;12.90;99.90;;;;;;4228783;28;19904;-63
2022/10/02 03:06:14;;;;;;;;;;;12.80;99.90;;;;;;4228245;28;19957;-64
2022/10/02 03:08:22;;;;;;;;;;;12.80;99.90;;;;;;4228854;28;19920;-64
2022/10/02 03:10:29;;;;;;;;;;;12.80;99.90;;;;;;4228478;28;19937;-62
2022/10/02 03:12:50;;;;;;;;;;;12.70;99.90;;;;;;4229070;28;20008;-64
2022/10/02 03:14:53;;;;;;;;;;;12.70;99.90;;;;;;4228622;28;19965;-64
2022/10/02 03:17:03;;;;;;;;;;;12.60;99.90;;;;;;4228868;28;19915;-64
2022/10/02 03:19:13;;;;;;;;;;;12.50;99.90;;;;;;4228450;28;20409;-65
2022/10/02 03:21:17;;;;;;;;;;;12.50;99.90;;;;;;4228723;28;19916;-64
2022/10/02 03:23:24;;;;;;;;;;;12.50;99.90;;;;;;4228234;28;19965;-64
2022/10/02 03:25:30;;;;;;;;;;;12.40;99.90;;;;;;4228867;28;19912;-63
2022/10/02 03:27:34;;;;;;;;;;;12.40;99.90;;;;;;4227935;28;20710;-63
2022/10/02 03:29:38;;;;;;;;;;;12.30;99.90;;;;;;4228623;28;19911;-64
2022/10/02 03:31:40;;;;;;;;;;;12.30;99.90;;;;;;4228415;28;20715;-64
2022/10/02 03:33:41;;;;;;;;;;;12.30;99.90;;;;;;4228514;28;19911;-64
2022/10/02 03:35:43;;;;;;;;;;;12.30;99.90;;;;;;4227907;28;19931;-64
2022/10/02 03:37:46;;;;;;;;;;;12.20;99.90;;;;;;4229028;28;19911;-63
2022/10/02 03:39:48;;;;;;;;;;;12.20;99.90;;;;;;4228056;28;19961;-63
2022/10/02 03:41:49;;;;;;;;;;;12.20;99.90;;;;;;4228636;28;19938;-63
2022/10/02 03:43:50;;;;;;;;;;;12.10;99.90;;;;;;4227867;28;20041;-63
2022/10/02 03:45:50;;;;;;;;;;;12.10;99.90;;;;;;4229058;28;19907;-65
2022/10/02 03:47:51;;;;;;;;;;;12.10;99.90;;;;;;4227449;28;20458;-63
2022/10/02 03:49:52;;;;;;;;;;;12.10;99.90;;;;;;4228656;28;19915;-64
2022/10/02 03:51:53;;;;;;;;;;;12.10;99.90;;;;;;4227863;28;20315;-63
2022/10/02 03:53:54;;;;;;;;;;;12.10;99.90;;;;;;4228424;28;19923;-64
2022/10/02 03:56:04;;;;;;;;;;;12.10;99.90;;;;;;4228274;28;19912;-64
2022/10/02 03:58:10;;;;;;;;;;;12.10;99.90;;;;;;4228099;28;19915;-63
2022/10/02 04:00:12;;;;;;;;;;;12.20;99.90;;;;;;4228233;28;20349;-63
2022/10/02 04:02:31;;;;;;;;;;;12.10;99.90;;;;;;4228422;28;19916;-65
2022/10/02 04:04:41;;;;;;;;;;;12.10;99.90;;;;;;4228336;28;19908;-63
2022/10/02 04:06:45;;;;;;;;;;;12.10;99.90;;;;;;4227808;28;19942;-65
2022/10/02 04:08:49;;;;;;;;;;;12.20;99.90;;;;;;4228329;28;19945;-64
2022/10/02 04:10:56;;;;;;;;;;;12.10;99.90;;;;;;4227824;28;19912;-65
2022/10/02 04:13:09;;;;;;;;;;;12.20;99.90;;;;;;4228525;28;19907;-63
2022/10/02 04:15:16;;;;;;;;;;;12.10;99.90;;;;;;4227641;28;20504;-63
2022/10/02 04:17:22;;;;;;;;;;;12.10;99.90;;;;;;4226839;28;19985;-64
2022/10/02 04:19:34;;;;;;;;;;;12.10;99.90;;;;;;4225729;28;19912;-64
2022/10/02 04:21:40;;;;;;;;;;;12.10;99.90;;;;;;4228425;28;19912;-62
2022/10/02 04:23:45;;;;;;;;;;;12.10;99.90;;;;;;4225538;28;19907;-63
2022/10/02 04:25:49;;;;;;;;;;;12.10;99.90;;;;;;4228526;28;20302;-64
2022/10/02 04:27:59;;;;;;;;;;;12.10;99.90;;;;;;4227372;28;20425;-63
2022/10/02 04:30:06;;;;;;;;;;;12.10;99.90;;;;;;4228564;28;19916;-63
2022/10/02 04:32:14;;;;;;;;;;;12.20;99.90;;;;;;4227994;28;20371;-63
2022/10/02 04:34:15;;;;;;;;;;;12.20;99.90;;;;;;4227996;28;19912;-63
2022/10/02 04:36:25;;;;;;;;;;;12.20;99.90;;;;;;4227479;28;20263;-65
2022/10/02 04:38:32;;;;;;;;;;;12.20;99.90;;;;;;4228629;28;19908;-64
2022/10/02 04:40:40;;;;;;;;;;;12.20;99.90;;;;;;4227239;28;20356;-63
2022/10/02 04:42:47;;;;;;;;;;;12.20;99.90;;;;;;4231279;28;19941;-63
2022/10/02 04:44:51;;;;;;;;;;;12.30;99.90;;;;;;4230478;28;19912;-65
2022/10/02 04:47:07;;;;;;;;;;;12.30;99.90;;;;;;4231658;28;19916;-65
2022/10/02 04:49:08;;;;;;;;;;;12.30;99.90;;;;;;4230351;28;19920;-64
2022/10/02 04:51:08;;;;;;;;;;;12.30;99.90;;;;;;4231579;28;20264;-64
2022/10/02 04:53:11;;;;;;;;;;;12.40;99.90;;;;;;4230425;28;19915;-64
2022/10/02 04:55:30;;;;;;;;;;;12.30;99.90;;;;;;4231458;28;19911;-64
2022/10/02 04:57:46;;;;;;;;;;;12.30;99.90;;;;;;4230340;28;19911;-64
2022/10/02 04:59:53;;;;;;;;;;;12.40;99.90;;;;;;4231159;28;19928;-64
2022/10/02 05:01:54;;;;;;;;;;;12.40;99.90;;;;;;4230688;28;19912;-63
2022/10/02 05:04:10;;;;;;;;;;;12.40;99.90;;;;;;4231191;28;19908;-64
2022/10/02 05:06:25;;;;;;;;;;;12.40;99.90;;;;;;4228669;28;19973;-64
2022/10/02 05:08:41;;;;;;;;;;;12.40;99.90;;;;;;4231215;28;19916;-65
2022/10/02 05:10:42;;;;;;;;;;;12.40;99.90;;;;;;4228243;28;19953;-63
2022/10/02 05:12:43;;;;;;;;;;;12.40;99.90;;;;;;4231247;28;20363;-64
2022/10/02 05:15:13;;;;;;;;;;;12.40;99.90;;;;;;4229896;28;19914;-64
2022/10/02 05:17:24;;;;;;;;;;;12.40;99.90;;;;;;4217645;28;20307;-63
2022/10/02 05:19:25;;;;;;;;;;;12.40;99.90;;;;;;4229817;28;20273;-64
2022/10/02 05:21:26;;;;;;;;;;;12.50;99.90;;;;;;4231070;28;20314;-63
2022/10/02 05:23:33;;;;;;;;;;;12.50;99.90;;;;;;4229914;28;19919;-65
2022/10/02 05:25:52;;;;;;;;;;;12.50;99.90;;;;;;4231220;28;19916;-64
2022/10/02 05:28:01;;;;;;;;;;;12.50;99.90;;;;;;4229862;28;19988;-63
2022/10/02 05:30:04;;;;;;;;;;;12.50;99.90;;;;;;4230990;28;19916;-63
2022/10/02 05:32:14;;;;;;;;;;;12.50;99.90;;;;;;4230174;28;20360;-64
2022/10/02 05:34:33;;;;;;;;;;;12.50;99.90;;;;;;4230851;28;19908;-64
2022/10/02 05:36:48;;;;;;;;;;;12.50;99.90;;;;;;4229843;28;19912;-63
2022/10/02 05:39:03;;;;;;;;;;;12.50;99.90;;;;;;4231015;28;20425;-64
2022/10/02 05:41:12;;;;;;;;;;;12.50;99.90;;;;;;4229626;28;19953;-64
2022/10/02 05:43:33;;;;;;;;;;;12.60;99.90;;;;;;4228859;28;19938;-65
2022/10/02 05:45:38;;;;;;;;;;;12.60;99.90;;;;;;4197400;28;19916;-64
2022/10/02 05:47:45;;;;;;;;;;;12.60;99.90;;;;;;4230450;28;19919;-63
2022/10/02 05:49:51;;;;;;;;;;;12.60;99.90;;;;;;4227570;28;19912;-63
2022/10/02 05:51:58;;;;;;;;;;;12.60;99.90;;;;;;4230144;28;19912;-64
2022/10/02 05:54:02;;;;;;;;;;;12.60;99.90;;;;;;4229381;28;19973;-65
2022/10/02 05:56:12;;;;;;;;;;;12.70;99.90;;;;;;4230631;28;19937;-64
2022/10/02 05:58:22;;;;;;;;;;;12.70;99.90;;;;;;4229175;28;19908;-64
2022/10/02 06:00:30;;;;;;;;;;;12.70;99.90;;;;;;4229945;28;20372;-64
2022/10/02 06:02:46;;;;;;;;;;;12.70;99.90;;;;;;4229669;28;19980;-65
2022/10/02 06:04:50;;;;;;;;;;;12.80;99.90;;;;;;4230285;28;19911;-64
2022/10/02 06:06:53;;;;;;;;;;;12.80;99.90;;;;;;4228994;28;20527;-65
2022/10/02 06:08:59;;;;;;;;;;;13.00;99.90;;;;;;4230231;28;20337;-65
2022/10/02 06:11:13;;;;;;;;;;;13.70;99.90;;;;;;4229078;28;19912;-65
2022/10/02 06:13:20;;;;;;;;;;;14.00;99.90;;;;;;4230044;28;19916;-65
2022/10/02 06:15:32;;;;;;;;;;;14.70;99.90;;;;;;4228505;28;19911;-64
2022/10/02 06:17:38;;;;;;;;;;;15.30;99.90;;;;;;4230198;28;19953;-64
2022/10/02 06:19:39;;;;;;;;;;;15.90;99.90;;;;;;4228843;28;19907;-64
2022/10/02 06:22:00;;;;;;;;;;;16.70;99.90;;;;;;4229872;28;19907;-63
2022/10/02 06:24:03;;;;;;;;;;;17.30;99.90;;;;;;4228514;28;19912;-63
2022/10/02 06:26:17;;;;;;;;;;;17.10;99.90;;;;;;4229953;28;20261;-63
2022/10/02 06:28:26;;;;;;;;;;;16.80;99.90;;;;;;4228600;28;19965;-64
2022/10/02 06:30:29;;;;;;;;;;;16.20;99.90;;;;;;4229876;28;19965;-64
2022/10/02 06:32:37;;;;;;;;;;;15.70;99.90;;;;;;4229060;28;20310;-65
2022/10/02 06:34:38;;;;;;;;;;;15.60;99.90;;;;;;4229215;28;20329;-64
2022/10/02 06:36:50;;;;;;;;;;;15.40;99.90;;;;;;4228199;28;20417;-64
2022/10/02 06:39:10;;;;;;;;;;;15.40;99.90;;;;;;4229669;28;19919;-65
2022/10/02 06:41:19;;;;;;;;;;;15.40;99.90;;;;;;4228106;28;19964;-64
2022/10/02 06:43:20;;;;;;;;;;;15.10;99.90;;;;;;4229723;28;19911;-67
2022/10/02 06:45:27;;;;;;;;;;;15.00;99.90;;;;;;4228580;28;20006;-64
2022/10/02 06:47:33;;;;;;;;;;;14.90;99.90;;;;;;4229514;28;19919;-64
2022/10/02 06:49:33;;;;;;;;;;;14.80;99.90;;;;;;4228518;28;19908;-63
2022/10/02 06:51:34;;;;;;;;;;;14.70;99.90;;;;;;4229141;28;20451;-63
2022/10/02 06:53:44;;;;;;;;;;;14.70;99.90;;;;;;4228396;28;19903;-63
2022/10/02 06:56:08;;;;;;;;;;;14.60;99.90;;;;;;4229080;28;19911;-68
2022/10/02 06:58:09;;;;;;;;;;;14.50;99.90;;;;;;4219706;28;19908;-67
2022/10/02 07:00:15;;;;;;;;;;;14.40;99.90;;;;;;4228795;28;19920;-66
2022/10/02 07:02:48;;;;;;;;;;;14.30;99.90;;;;;;4228875;28;19916;-64
2022/10/02 07:05:07;;;;;;;;;;;14.20;99.90;;;;;;4194127;28;19911;-65
2022/10/02 07:07:18;;;;;;;;;;;14.20;99.90;;;;;;4227796;28;19960;-68
2022/10/02 07:09:33;;;;;;;;;;;14.10;99.90;;;;;;4229301;28;19915;-65
2022/10/02 07:11:38;;;;;;;;;;;14.10;99.90;;;;;;4228061;28;19912;-66
2022/10/02 07:13:52;;;;;;;;;;;14.20;99.90;;;;;;4229152;28;20314;-64
2022/10/02 07:15:56;;;;;;;;;;;14.10;99.90;;;;;;4227880;28;19915;-65
2022/10/02 07:17:59;;;;;;;;;;;14.20;99.90;;;;;;4228946;28;19908;-66
2022/10/02 07:20:36;;;;;;;;;;;14.40;99.90;;;;;;4227987;28;19911;-64
2022/10/02 07:22:37;;;;;;;;;;;14.70;99.90;;;;;;4176945;28;19954;-64
2022/10/02 07:25:02;;;;;;;;;;;15.00;99.90;;;;;;4204037;28;19912;-65
2022/10/02 07:27:21;;;;;;;;;;;15.20;99.90;;;;;;4228707;28;20333;-65
2022/10/02 07:29:51;;;;;;;;;;;15.40;99.90;;;;;;4227678;28;19916;-64
2022/10/02 07:32:01;;;;;;;;;;;15.60;99.90;;;;;;4214984;28;19915;-63
2022/10/02 07:34:05;;;;;;;;;;;15.60;99.90;;;;;;4227527;28;19912;-63
2022/10/02 07:36:16;;;;;;;;;;;15.60;99.90;;;;;;4228469;28;20409;-63
2022/10/02 07:38:44;;;;;;;;;;;15.70;99.90;;;;;;4227381;28;19961;-63
2022/10/02 07:40:58;;;;;;;;;;;15.80;99.90;;;;;;4227778;28;19908;-64
2022/10/02 07:43:05;;;;;;;;;;;16.00;99.90;;;;;;4227703;28;19912;-64
2022/10/02 07:45:18;;;;;;;;;;;16.10;99.90;;;;;;4227919;28;20304;-64
2022/10/02 07:47:28;;;;;;;;;;;16.30;99.90;;;;;;4227346;28;20372;-68
2022/10/02 07:49:44;;;;;;;;;;;16.60;99.90;;;;;;4227771;28;19961;-65
2022/10/02 07:51:58;;;;;;;;;;;16.90;99.90;;;;;;4227860;28;19961;-64
2022/10/02 07:54:15;;;;;;;;;;;17.00;99.90;;;;;;4227671;28;20364;-64
2022/10/02 07:56:21;;;;;;;;;;;17.00;99.90;;;;;;4228192;28;19916;-64
2022/10/02 07:58:25;;;;;;;;;;;16.90;99.90;;;;;;4227413;28;19912;-70
2022/10/02 08:00:28;;;;;;;;;;;17.00;99.90;;;;;;4226426;28;19949;-68
2022/10/02 08:02:41;;;;;;;;;;;16.80;99.90;;;;;;4228434;28;20424;-69
2022/10/02 08:04:42;;;;;;;;;;;16.60;99.90;;;;;;4226042;28;19912;-65
2022/10/02 08:06:45;;;;;;;;;;;16.50;99.90;;;;;;4228008;28;19947;-65
2022/10/02 08:08:49;;;;;;;;;;;16.50;99.90;;;;;;4227409;28;19915;-71
2022/10/02 08:10:54;;;;;;;;;;;16.50;99.90;;;;;;4228235;28;19908;-66
2022/10/02 08:13:02;;;;;;;;;;;16.40;99.90;;;;;;4227164;28;19995;-69
2022/10/02 08:15:04;;;;;;;;;;;16.10;99.90;;;;;;4228583;28;19980;-66
2022/10/02 08:17:35;;;;;;;;;;;15.80;99.90;;;;;;4230666;28;19953;-71
2022/10/02 08:19:39;;;;;;;;;;;15.60;99.90;;;;;;4179067;28;20340;-68
2022/10/02 08:21:42;;;;;;;;;;;15.30;99.90;;;;;;4229080;27;20314;-65
2022/10/02 08:23:43;;;;;;;;;;;15.20;99.90;;;;;;4231484;28;19986;-65
2022/10/02 08:25:59;;;;;;;;;;;15.00;99.90;;;;;;4230488;28;20309;-65
2022/10/02 08:28:09;;;;;;;;;;;14.90;99.90;;;;;;4231604;28;19965;-65
2022/10/02 08:30:11;;;;;;;;;;;14.80;99.90;;;;;;4230440;28;19969;-65
2022/10/02 08:32:12;;;;;;;;;;;14.80;99.90;;;;;;4231383;28;20328;-64
2022/10/02 08:34:18;;;;;;;;;;;14.70;99.90;;;;;;4230517;28;19912;-64
2022/10/02 08:36:19;;;;;;;;;;;14.70;99.90;;;;;;4231551;28;20341;-65
2022/10/02 08:38:43;;;;;;;;;;;14.70;99.90;;;;;;4230321;28;19907;-68
2022/10/02 08:40:56;;;;;;;;;;;14.70;99.90;;;;;;4223311;28;19953;-64
2022/10/02 08:42:57;;;;;;;;;;;14.70;99.90;;;;;;4230404;28;19969;-65
2022/10/02 08:45:01;;;;;;;;;;;14.70;99.90;;;;;;4231506;28;20346;-65
2022/10/02 08:47:08;;;;;;;;;;;14.60;99.90;;;;;;4230254;28;20355;-65
2022/10/02 08:49:15;;;;;;;;;;;14.60;99.90;;;;;;4231288;28;20397;-64
2022/10/02 08:51:35;;;;;;;;;;;14.70;99.90;;;;;;4230299;28;19952;-64
2022/10/02 08:53:42;;;;;;;;;;;14.70;99.90;;;;;;4231101;28;19912;-64
2022/10/02 08:56:02;;;;;;;;;;;14.60;99.90;;;;;;4230013;28;19961;-64
2022/10/02 08:58:22;;;;;;;;;;;14.50;99.90;;;;;;4231228;28;20317;-64
2022/10/02 09:00:45;;;;;;;;;;;14.40;99.90;;;;;;4229932;28;19950;-64
2022/10/02 09:03:02;;;;;;;;;;;14.40;99.90;;;;;;4230684;28;20359;-64
2022/10/02 09:05:22;;;;;;;;;;;14.40;99.90;;;;;;4230212;28;20591;-65
2022/10/02 09:07:25;;;;;;;;;;;14.50;99.90;;;;;;4230308;28;20359;-66
2022/10/02 09:09:41;;;;;;;;;;;14.60;99.90;;;;;;4230157;28;20329;-64
2022/10/02 09:11:44;;;;;;;;;;;14.70;99.90;;;;;;4230083;28;19949;-64
2022/10/02 09:13:44;;;;;;;;;;;14.90;99.90;;;;;;4230168;28;19941;-67
2022/10/02 09:15:48;;;;;;;;;;;15.00;99.90;;;;;;4230576;28;19914;-65
2022/10/02 09:18:14;;;;;;;;;;;15.00;99.90;;;;;;4229359;28;19911;-63
2022/10/02 09:20:21;;;;;;;;;;;15.10;99.90;;;;;;4230085;28;19965;-64
2022/10/02 09:22:31;;;;;;;;;;;15.20;99.90;;;;;;4229406;28;19908;-63
2022/10/02 09:24:55;;;;;;;;;;;15.30;99.90;;;;;;4230021;28;19908;-64
2022/10/02 09:27:22;;;;;;;;;;;15.20;99.90;;;;;;4229297;28;19967;-69
2022/10/02 09:29:58;;;;;;;;;;;15.20;99.90;;;;;;4229442;28;19965;-66
2022/10/02 09:32:02;;;;;;;;;;;15.40;99.90;;;;;;4178045;28;20466;-64
2022/10/02 09:34:06;;;;;;;;;;;15.50;99.90;;;;;;4206596;28;20340;-65
2022/10/02 09:36:25;;;;;;;;;;;15.40;99.90;;;;;;4230400;28;19911;-64
2022/10/02 09:38:33;;;;;;;;;;;15.50;99.90;;;;;;4229070;28;19937;-64
2022/10/02 09:40:44;;;;;;;;;;;15.40;99.90;;;;;;4230191;28;19908;-64
2022/10/02 09:43:05;;;;;;;;;;;15.40;99.90;;;;;;4228674;28;20333;-64
2022/10/02 09:45:35;;;;;;;;;;;15.50;99.90;;;;;;4229677;27;19912;-65
2022/10/02 09:47:41;;;;;;;;;;;15.60;99.90;;;;;;4176339;28;19978;-64
2022/10/02 09:50:01;;;;;;;;;;;15.80;99.90;;;;;;4229635;28;19923;-65
2022/10/02 09:52:05;;;;;;;;;;;15.90;99.90;;;;;;4228930;28;20424;-65
2022/10/02 09:54:25;;;;;;;;;;;16.30;99.90;;;;;;4230318;28;19941;-65
2022/10/02 09:56:28;;;;;;;;;;;16.50;99.90;;;;;;4227290;28;19911;-64
2022/10/02 09:58:48;;;;;;;;;;;16.60;99.90;;;;;;4229979;28;19916;-68
2022/10/02 10:01:07;;;;;;;;;;;16.70;99.90;;;;;;4228720;28;19941;-65
2022/10/02 10:03:13;;;;;;;;;;;16.80;99.90;;;;;;4228650;28;19911;-65
2022/10/02 10:05:22;;;;;;;;;;;16.80;99.90;;;;;;4228802;28;20056;-66
2022/10/02 10:07:41;;;;;;;;;;;16.70;99.90;;;;;;4230145;28;19912;-64
2022/10/02 10:09:54;;;;;;;;;;;16.60;99.90;;;;;;4229017;28;19985;-68
2022/10/02 10:12:04;;;;;;;;;;;16.60;99.90;;;;;;4229546;28;20337;-64
2022/10/02 10:14:23;;;;;;;;;;;16.50;99.90;;;;;;4227027;28;20370;-64
2022/10/02 10:16:43;;;;;;;;;;;16.50;99.90;;;;;;4229259;28;19911;-65
2022/10/02 10:19:01;;;;;;;;;;;16.50;99.90;;;;;;4228867;28;19908;-64
2022/10/02 10:21:05;;;;;;;;;;;16.40;99.90;;;;;;4228754;28;19904;-64
2022/10/02 10:23:19;;;;;;;;;;;16.40;99.90;;;;;;4229094;28;20417;-69
2022/10/02 10:25:41;;;;;;;;;;;16.50;99.90;;;;;;4228913;28;19904;-64
2022/10/02 10:28:01;;;;;;;;;;;16.40;99.90;;;;;;4197913;28;19907;-65
2022/10/02 10:30:12;;;;;;;;;;;16.60;99.90;;;;;;4228460;28;20784;-67
2022/10/02 10:32:32;;;;;;;;;;;16.80;99.90;;;;;;4229392;28;20308;-64
2022/10/02 10:34:33;;;;;;;;;;;16.90;99.90;;;;;;4228532;28;19953;-65
2022/10/02 10:39:08;;;;;;;;;;;17.20;99.90;;;;;;4227537;28;19964;-64
2022/10/02 10:41:09;;;;;;;;;;;17.30;99.90;;;;;;4229508;28;19912;-66
2022/10/02 10:43:20;;;;;;;;;;;17.40;99.90;;;;;;4226223;28;20376;-64
2022/10/02 10:45:40;;;;;;;;;;;17.50;99.90;;;;;;4227499;28;20045;-64
2022/10/02 10:47:59;;;;;;;;;;;17.50;99.90;;;;;;4227612;28;19908;-64
2022/10/02 10:50:18;;;;;;;;;;;17.60;99.90;;;;;;4229275;28;19919;-64
2022/10/02 10:52:37;;;;;;;;;;;17.70;99.90;;;;;;4228204;28;19908;-65
2022/10/02 10:54:57;;;;;;;;;;;17.60;99.90;;;;;;4227553;28;20742;-65
2022/10/02 10:56:58;;;;;;;;;;;17.40;99.90;;;;;;4227937;28;19988;-68
2022/10/02 10:59:17;;;;;;;;;;;17.20;99.90;;;;;;4229038;28;20030;-65
2022/10/02 11:01:19;;;;;;;;;;;17.10;99.90;;;;;;4227864;28;19908;-65
2022/10/02 11:03:31;;;;;;;;;;;17.00;99.90;;;;;;4229350;28;20325;-65
2022/10/02 11:05:41;;;;;;;;;;;16.90;99.90;;;;;;4227889;28;19912;-67
2022/10/02 11:07:49;;;;;;;;;;;16.90;99.90;;;;;;4228864;28;19911;-70
2022/10/02 11:09:52;;;;;;;;;;;16.80;99.90;;;;;;4227738;28;19961;-64
2022/10/02 11:12:12;;;;;;;;;;;16.70;99.90;;;;;;4227293;28;20409;-65
2022/10/02 11:14:16;;;;;;;;;;;16.70;99.90;;;;;;4227713;28;20325;-64
2022/10/02 11:16:28;;;;;;;;;;;16.60;99.90;;;;;;4228807;28;19912;-64
2022/10/02 11:18:44;;;;;;;;;;;16.60;99.90;;;;;;4227638;28;19908;-63
2022/10/02 11:21:04;;;;;;;;;;;16.60;99.90;;;;;;4228925;28;19954;-66
2022/10/02 11:23:11;;;;;;;;;;;16.70;99.90;;;;;;4227748;28;19973;-65
2022/10/02 11:25:12;;;;;;;;;;;16.80;99.90;;;;;;4228839;28;20349;-66
2022/10/02 11:27:32;;;;;;;;;;;16.80;99.90;;;;;;4227867;28;20007;-65
2022/10/02 11:29:54;;;;;;;;;;;17.00;99.90;;;;;;4228997;28;19915;-65
2022/10/02 11:32:13;;;;;;;;;;;17.00;99.90;;;;;;4227817;28;20413;-64
2022/10/02 11:34:21;;;;;;;;;;;17.10;99.90;;;;;;4228653;28;19916;-65
2022/10/02 11:36:21;;;;;;;;;;;17.30;99.90;;;;;;4227786;28;19938;-67
2022/10/02 11:38:23;;;;;;;;;;;17.30;99.90;;;;;;4228432;28;20002;-66
2022/10/02 11:40:43;;;;;;;;;;;17.30;99.90;;;;;;4227455;28;19912;-66
2022/10/02 11:42:44;;;;;;;;;;;17.20;99.90;;;;;;4228173;28;19908;-64
2022/10/02 11:44:51;;;;;;;;;;;17.20;99.90;;;;;;4227098;28;19953;-63
2022/10/02 11:46:57;;;;;;;;;;;17.20;99.90;;;;;;4227040;28;20008;-64
2022/10/02 11:48:58;;;;;;;;;;;17.20;99.90;;;;;;4227164;28;19939;-63
2022/10/02 11:51:15;;;;;;;;;;;17.20;99.90;;;;;;4228337;28;20012;-63
2022/10/02 11:53:16;;;;;;;;;;;17.30;99.90;;;;;;4227235;28;20421;-68
2022/10/02 11:55:36;;;;;;;;;;;17.30;99.90;;;;;;4228603;28;19907;-64
2022/10/02 11:57:37;;;;;;;;;;;17.20;99.90;;;;;;4227335;28;19957;-63
2022/10/02 11:59:38;;;;;;;;;;;17.10;99.90;;;;;;4228541;28;20022;-65
2022/10/02 12:01:48;;;;;;;;;;;17.00;99.90;;;;;;4227336;28;19935;-64
2022/10/02 12:04:09;;;;;;;;;;;17.00;99.90;;;;;;4228936;28;19976;-65
2022/10/02 12:06:29;;;;;;;;;;;16.90;99.90;;;;;;4227207;28;19912;-67
2022/10/02 12:08:48;;;;;;;;;;;16.80;99.90;;;;;;4228275;28;19920;-64
2022/10/02 12:11:12;;;;;;;;;;;16.90;99.90;;;;;;4227358;28;19973;-64
2022/10/02 12:13:28;;;;;;;;;;;16.90;99.90;;;;;;4227664;28;19911;-64
2022/10/02 12:15:48;;;;;;;;;;;16.90;99.90;;;;;;4227475;28;20367;-64
2022/10/02 12:17:58;;;;;;;;;;;16.90;99.90;;;;;;4227248;28;19977;-66
2022/10/02 12:27:41;;;;;;;;;;;16.70;99.90;;;;;;4211317;28;19957;-66
2022/10/02 12:29:48;;;;;;;;;;;16.80;99.90;;;;;;4228334;28;20002;-64
2022/10/02 12:31:57;;;;;;;;;;;16.80;99.90;;;;;;4226938;28;19911;-63
2022/10/02 12:34:01;;;;;;;;;;;16.80;99.90;;;;;;4228359;28;20297;-68
2022/10/02 12:36:08;;;;;;;;;;;16.70;99.90;;;;;;4226966;28;19912;-65
2022/10/02 12:38:11;;;;;;;;;;;16.80;99.90;;;;;;4228069;28;19911;-63
2022/10/02 12:40:19;;;;;;;;;;;16.80;99.90;;;;;;4226694;28;19976;-65